This is the latest recevied weather packets stored in our database for station/object E22FEY-1. If no packets are shown the sender has not sent any weather packets the latest 10 day(s).
| Time | Temp. | Humidity | Pressure | Rain* | Wind** | Luminosity | Snow |
|---|---|---|---|---|---|---|---|
| 1777695711 | 38.33° C | 43% | 1009 hPa | - | - | 0 W/m² | - |
| 1777694787 | 38.33° C | 45% | 1009 hPa | - | - | 0 W/m² | - |
| 1777693862 | 37.78° C | 47% | 1009 hPa | - | - | 0 W/m² | - |
| 1777692938 | 36.67° C | 49% | 1010 hPa | - | - | 0 W/m² | - |
| 1777692013 | 36.11° C | 51% | 1010 hPa | - | - | 0 W/m² | - |
| 1777691089 | 35.56° C | 54% | 1010 hPa | - | - | 0 W/m² | - |
| 1777690164 | 35.56° C | 55% | 1010 hPa | - | - | 0 W/m² | - |
| 1777689240 | 35° C | 56% | 1010 hPa | - | - | 0 W/m² | - |
| 1777688316 | 34.44° C | 57% | 1010 hPa | - | - | 0 W/m² | - |
| 1777687391 | 34.44° C | 57% | 1010 hPa | - | - | 0 W/m² | - |
| 1777686466 | 34.44° C | 58% | 1010 hPa | - | - | 0 W/m² | - |
| 1777685542 | 33.89° C | 60% | 1010 hPa | - | - | 0 W/m² | - |
| 1777684617 | 33.89° C | 60% | 1010 hPa | - | - | 0 W/m² | - |
| 1777683693 | 31.67° C | 66% | 1009 hPa | - | - | 0 W/m² | - |
| 1777682768 | 30° C | 71% | 1009 hPa | - | - | 0 W/m² | - |
| 1777681843 | 29.44° C | 71% | 1009 hPa | - | - | 0 W/m² | - |
| 1777680919 | 29.44° C | 72% | 1009 hPa | - | - | 0 W/m² | - |
| 1777679994 | 28.89° C | 71% | 1009 hPa | - | - | 0 W/m² | - |
| 1777679070 | 30° C | 67% | 1009 hPa | - | - | 0 W/m² | - |
| 1777678145 | 29.44° C | 68% | 1009 hPa | - | - | 0 W/m² | - |
| 1777677221 | 30.56° C | 67% | 1010 hPa | - | - | 0 W/m² | - |
| 1777676297 | 30.56° C | 67% | 1009 hPa | - | - | 0 W/m² | - |
| 1777675372 | 31.11° C | 65% | 1008 hPa | - | - | 0 W/m² | - |
| 1777674448 | 30.56° C | 66% | 1008 hPa | - | - | 0 W/m² | - |
| 1777673524 | 32.22° C | 64% | 1008 hPa | - | - | 0 W/m² | - |
* Rain since midnight (hover to see other rain measurements)
** Current wind speed in m/s (hover to see current wind gust speed)